sensor_id;sensor_type;location;lat;lon;timestamp;temperature;humidity
51815;DHT22;37874;53.158;6.766;2023-08-07T00:00:22;24.20;59.40
51815;DHT22;37874;53.158;6.766;2023-08-07T00:02:48;24.10;59.60
51815;DHT22;37874;53.158;6.766;2023-08-07T00:05:14;24.10;59.50
51815;DHT22;37874;53.158;6.766;2023-08-07T00:07:39;24.10;59.60
51815;DHT22;37874;53.158;6.766;2023-08-07T00:10:06;24.10;59.70
51815;DHT22;37874;53.158;6.766;2023-08-07T00:12:32;24.00;59.60
51815;DHT22;37874;53.158;6.766;2023-08-07T00:14:58;24.10;59.70
51815;DHT22;37874;53.158;6.766;2023-08-07T00:17:23;24.00;59.60
51815;DHT22;37874;53.158;6.766;2023-08-07T00:19:49;24.00;59.70
51815;DHT22;37874;53.158;6.766;2023-08-07T00:22:14;24.00;59.70
51815;DHT22;37874;53.158;6.766;2023-08-07T00:24:40;24.00;59.80
51815;DHT22;37874;53.158;6.766;2023-08-07T00:27:06;24.00;59.80
51815;DHT22;37874;53.158;6.766;2023-08-07T00:29:35;24.00;59.80
51815;DHT22;37874;53.158;6.766;2023-08-07T00:32:01;24.50;60.10
51815;DHT22;37874;53.158;6.766;2023-08-07T00:34:26;24.00;59.90
51815;DHT22;37874;53.158;6.766;2023-08-07T00:36:52;24.00;59.90
51815;DHT22;37874;53.158;6.766;2023-08-07T00:39:17;24.00;59.90
51815;DHT22;37874;53.158;6.766;2023-08-07T00:41:43;23.90;60.00
51815;DHT22;37874;53.158;6.766;2023-08-07T00:44:09;24.00;60.00
51815;DHT22;37874;53.158;6.766;2023-08-07T00:46:34;24.00;60.00
51815;DHT22;37874;53.158;6.766;2023-08-07T00:49:01;23.90;60.00
51815;DHT22;37874;53.158;6.766;2023-08-07T00:51:27;24.20;60.20
51815;DHT22;37874;53.158;6.766;2023-08-07T00:53:53;23.90;60.00
51815;DHT22;37874;53.158;6.766;2023-08-07T00:56:18;23.90;60.00
51815;DHT22;37874;53.158;6.766;2023-08-07T00:58:44;23.90;60.10
51815;DHT22;37874;53.158;6.766;2023-08-07T01:01:10;23.90;60.10
51815;DHT22;37874;53.158;6.766;2023-08-07T01:03:36;23.80;60.10
51815;DHT22;37874;53.158;6.766;2023-08-07T01:06:02;23.90;60.10
51815;DHT22;37874;53.158;6.766;2023-08-07T01:08:27;23.90;60.10
51815;DHT22;37874;53.158;6.766;2023-08-07T01:17:06;23.90;60.10
51815;DHT22;37874;53.158;6.766;2023-08-07T01:19:30;23.90;60.20
51815;DHT22;37874;53.158;6.766;2023-08-07T01:22:14;23.80;60.20
51815;DHT22;37874;53.158;6.766;2023-08-07T01:24:42;23.90;60.20
51815;DHT22;37874;53.158;6.766;2023-08-07T01:35:15;23.80;60.10
51815;DHT22;37874;53.158;6.766;2023-08-07T01:37:42;23.80;60.00
51815;DHT22;37874;53.158;6.766;2023-08-07T01:40:10;24.10;60.30
51815;DHT22;37874;53.158;6.766;2023-08-07T01:42:36;23.80;60.10
51815;DHT22;37874;53.158;6.766;2023-08-07T01:45:04;23.80;60.70
51815;DHT22;37874;53.158;6.766;2023-08-07T01:47:30;23.80;60.10
51815;DHT22;37874;53.158;6.766;2023-08-07T01:49:55;23.80;60.10
51815;DHT22;37874;53.158;6.766;2023-08-07T01:52:21;23.80;60.70
51815;DHT22;37874;53.158;6.766;2023-08-07T01:54:47;23.70;60.10
51815;DHT22;37874;53.158;6.766;2023-08-07T01:57:13;23.80;60.10
51815;DHT22;37874;53.158;6.766;2023-08-07T01:59:39;24.10;60.30
51815;DHT22;37874;53.158;6.766;2023-08-07T02:02:04;23.80;60.10
51815;DHT22;37874;53.158;6.766;2023-08-07T02:04:31;23.80;60.10
51815;DHT22;37874;53.158;6.766;2023-08-07T02:06:56;23.80;60.10
51815;DHT22;37874;53.158;6.766;2023-08-07T02:09:22;23.80;60.10
51815;DHT22;37874;53.158;6.766;2023-08-07T02:11:48;23.80;60.10
51815;DHT22;37874;53.158;6.766;2023-08-07T02:14:13;23.80;60.10
51815;DHT22;37874;53.158;6.766;2023-08-07T02:16:39;23.80;60.10
51815;DHT22;37874;53.158;6.766;2023-08-07T02:19:05;24.10;60.30
51815;DHT22;37874;53.158;6.766;2023-08-07T02:21:31;23.80;60.60
51815;DHT22;37874;53.158;6.766;2023-08-07T02:23:57;23.80;60.10
51815;DHT22;37874;53.158;6.766;2023-08-07T02:26:23;23.80;60.10
51815;DHT22;37874;53.158;6.766;2023-08-07T02:28:48;23.80;60.10
51815;DHT22;37874;53.158;6.766;2023-08-07T02:31:14;23.70;60.10
51815;DHT22;37874;53.158;6.766;2023-08-07T02:33:39;23.70;60.10
51815;DHT22;37874;53.158;6.766;2023-08-07T02:36:07;24.00;60.20
51815;DHT22;37874;53.158;6.766;2023-08-07T02:38:33;23.70;60.10
51815;DHT22;37874;53.158;6.766;2023-08-07T02:40:58;23.70;60.10
51815;DHT22;37874;53.158;6.766;2023-08-07T02:43:24;23.90;60.20
51815;DHT22;37874;53.158;6.766;2023-08-07T02:45:51;23.70;60.10
51815;DHT22;37874;53.158;6.766;2023-08-07T02:48:17;23.60;60.10
51815;DHT22;37874;53.158;6.766;2023-08-07T02:50:43;23.60;60.10
51815;DHT22;37874;53.158;6.766;2023-08-07T02:53:09;23.70;60.20
51815;DHT22;37874;53.158;6.766;2023-08-07T02:55:35;23.60;60.10
51815;DHT22;37874;53.158;6.766;2023-08-07T02:58:00;23.80;60.20
51815;DHT22;37874;53.158;6.766;2023-08-07T03:00:26;24.50;60.60
51815;DHT22;37874;53.158;6.766;2023-08-07T03:02:52;23.70;60.20
51815;DHT22;37874;53.158;6.766;2023-08-07T03:05:18;23.60;60.10
51815;DHT22;37874;53.158;6.766;2023-08-07T03:07:43;23.60;60.70
51815;DHT22;37874;53.158;6.766;2023-08-07T03:10:09;23.60;60.10
51815;DHT22;37874;53.158;6.766;2023-08-07T03:12:34;23.60;60.10
51815;DHT22;37874;53.158;6.766;2023-08-07T03:15:00;23.90;60.20
51815;DHT22;37874;53.158;6.766;2023-08-07T03:17:26;23.60;60.10
51815;DHT22;37874;53.158;6.766;2023-08-07T03:19:51;23.60;60.00
51815;DHT22;37874;53.158;6.766;2023-08-07T03:22:17;23.60;60.10
51815;DHT22;37874;53.158;6.766;2023-08-07T03:24:47;23.60;60.10
51815;DHT22;37874;53.158;6.766;2023-08-07T03:27:13;23.70;60.20
51815;DHT22;37874;53.158;6.766;2023-08-07T03:29:39;23.60;60.10
51815;DHT22;37874;53.158;6.766;2023-08-07T03:32:04;23.60;60.10
51815;DHT22;37874;53.158;6.766;2023-08-07T03:34:30;23.60;60.60
51815;DHT22;37874;53.158;6.766;2023-08-07T03:36:56;23.60;60.10
51815;DHT22;37874;53.158;6.766;2023-08-07T03:39:21;23.60;60.10
51815;DHT22;37874;53.158;6.766;2023-08-07T03:41:47;23.60;60.10
51815;DHT22;37874;53.158;6.766;2023-08-07T03:44:13;23.80;60.30
51815;DHT22;37874;53.158;6.766;2023-08-07T03:46:38;23.60;60.20
51815;DHT22;37874;53.158;6.766;2023-08-07T03:49:04;23.50;60.10
51815;DHT22;37874;53.158;6.766;2023-08-07T03:51:29;24.10;61.00
51815;DHT22;37874;53.158;6.766;2023-08-07T03:53:56;23.60;60.20
51815;DHT22;37874;53.158;6.766;2023-08-07T03:56:21;23.50;60.10
51815;DHT22;37874;53.158;6.766;2023-08-07T03:58:47;23.80;60.40
51815;DHT22;37874;53.158;6.766;2023-08-07T04:01:14;23.70;60.40
51815;DHT22;37874;53.158;6.766;2023-08-07T04:03:40;23.50;60.30
51815;DHT22;37874;53.158;6.766;2023-08-07T04:06:06;23.50;60.80
51815;DHT22;37874;53.158;6.766;2023-08-07T04:08:31;23.50;60.30
51815;DHT22;37874;53.158;6.766;2023-08-07T04:11:04;23.50;60.30
51815;DHT22;37874;53.158;6.766;2023-08-07T04:13:31;23.40;60.30
51815;DHT22;37874;53.158;6.766;2023-08-07T04:15:57;23.50;60.40
51815;DHT22;37874;53.158;6.766;2023-08-07T04:18:23;23.60;60.40
51815;DHT22;37874;53.158;6.766;2023-08-07T04:20:53;23.40;60.30
51815;DHT22;37874;53.158;6.766;2023-08-07T04:23:19;23.90;60.60
51815;DHT22;37874;53.158;6.766;2023-08-07T04:25:45;23.80;60.50
51815;DHT22;37874;53.158;6.766;2023-08-07T04:28:11;23.40;60.30
51815;DHT22;37874;53.158;6.766;2023-08-07T04:30:37;23.40;60.30
51815;DHT22;37874;53.158;6.766;2023-08-07T04:33:02;23.40;60.40
51815;DHT22;37874;53.158;6.766;2023-08-07T04:35:28;23.60;60.50
51815;DHT22;37874;53.158;6.766;2023-08-07T04:37:54;23.40;60.40
51815;DHT22;37874;53.158;6.766;2023-08-07T04:40:19;23.40;60.40
51815;DHT22;37874;53.158;6.766;2023-08-07T04:42:45;23.40;60.40
51815;DHT22;37874;53.158;6.766;2023-08-07T04:45:10;23.50;60.40
51815;DHT22;37874;53.158;6.766;2023-08-07T04:47:36;24.00;60.80
51815;DHT22;37874;53.158;6.766;2023-08-07T04:50:02;23.30;60.40
51815;DHT22;37874;53.158;6.766;2023-08-07T04:52:28;23.30;60.50
51815;DHT22;37874;53.158;6.766;2023-08-07T04:54:53;23.30;60.40
51815;DHT22;37874;53.158;6.766;2023-08-07T04:57:19;23.30;60.40
51815;DHT22;37874;53.158;6.766;2023-08-07T04:59:45;23.30;60.40
51815;DHT22;37874;53.158;6.766;2023-08-07T05:02:10;23.30;60.30
51815;DHT22;37874;53.158;6.766;2023-08-07T05:04:36;23.40;60.40
51815;DHT22;37874;53.158;6.766;2023-08-07T05:07:05;23.40;60.30
51815;DHT22;37874;53.158;6.766;2023-08-07T05:09:30;23.40;60.30
51815;DHT22;37874;53.158;6.766;2023-08-07T05:11:59;23.40;60.30
51815;DHT22;37874;53.158;6.766;2023-08-07T05:14:25;24.10;60.60
51815;DHT22;37874;53.158;6.766;2023-08-07T05:16:51;24.20;60.70
51815;DHT22;37874;53.158;6.766;2023-08-07T05:19:17;23.40;60.20
51815;DHT22;37874;53.158;6.766;2023-08-07T05:21:42;23.60;60.30
51815;DHT22;37874;53.158;6.766;2023-08-07T05:24:08;23.40;60.20
51815;DHT22;37874;53.158;6.766;2023-08-07T05:26:34;23.90;60.30
51815;DHT22;37874;53.158;6.766;2023-08-07T05:28:59;23.40;60.10
51815;DHT22;37874;53.158;6.766;2023-08-07T05:31:25;23.50;60.20
51815;DHT22;37874;53.158;6.766;2023-08-07T05:33:51;23.50;60.00
51815;DHT22;37874;53.158;6.766;2023-08-07T05:36:16;23.50;60.00
51815;DHT22;37874;53.158;6.766;2023-08-07T05:38:42;23.60;60.00
51815;DHT22;37874;53.158;6.766;2023-08-07T05:41:11;23.50;59.80
51815;DHT22;37874;53.158;6.766;2023-08-07T05:43:36;23.60;59.90
51815;DHT22;37874;53.158;6.766;2023-08-07T05:46:02;23.60;59.80
51815;DHT22;37874;53.158;6.766;2023-08-07T05:48:28;23.50;59.80
51815;DHT22;37874;53.158;6.766;2023-08-07T05:50:53;23.60;59.80
51815;DHT22;37874;53.158;6.766;2023-08-07T05:53:19;23.60;59.70
51815;DHT22;37874;53.158;6.766;2023-08-07T05:55:45;23.60;59.60
51815;DHT22;37874;53.158;6.766;2023-08-07T05:58:11;23.60;59.60
51815;DHT22;37874;53.158;6.766;2023-08-07T06:00:36;23.60;59.70
51815;DHT22;37874;53.158;6.766;2023-08-07T06:03:02;23.60;59.70
51815;DHT22;37874;53.158;6.766;2023-08-07T06:05:28;23.60;59.70
51815;DHT22;37874;53.158;6.766;2023-08-07T06:07:54;23.60;59.70
51815;DHT22;37874;53.158;6.766;2023-08-07T06:10:19;23.70;59.60
51815;DHT22;37874;53.158;6.766;2023-08-07T06:12:45;23.70;59.50
51815;DHT22;37874;53.158;6.766;2023-08-07T06:15:11;24.40;59.80
51815;DHT22;37874;53.158;6.766;2023-08-07T06:17:36;23.70;59.40
51815;DHT22;37874;53.158;6.766;2023-08-07T06:20:07;24.00;59.50
51815;DHT22;37874;53.158;6.766;2023-08-07T06:22:34;23.70;59.40
51815;DHT22;37874;53.158;6.766;2023-08-07T06:25:00;23.80;59.40
51815;DHT22;37874;53.158;6.766;2023-08-07T06:27:26;23.70;59.40
51815;DHT22;37874;53.158;6.766;2023-08-07T06:29:51;23.80;59.40
51815;DHT22;37874;53.158;6.766;2023-08-07T06:32:17;23.70;59.40
51815;DHT22;37874;53.158;6.766;2023-08-07T06:34:46;23.80;59.40
51815;DHT22;37874;53.158;6.766;2023-08-07T06:37:12;23.80;59.20
51815;DHT22;37874;53.158;6.766;2023-08-07T06:39:38;23.80;59.20
51815;DHT22;37874;53.158;6.766;2023-08-07T06:42:04;23.80;59.10
51815;DHT22;37874;53.158;6.766;2023-08-07T06:44:29;23.80;59.10
51815;DHT22;37874;53.158;6.766;2023-08-07T06:46:55;23.80;59.10
51815;DHT22;37874;53.158;6.766;2023-08-07T06:49:21;23.90;59.00
51815;DHT22;37874;53.158;6.766;2023-08-07T06:51:47;23.90;59.00
51815;DHT22;37874;53.158;6.766;2023-08-07T06:54:12;23.90;59.00
51815;DHT22;37874;53.158;6.766;2023-08-07T06:56:38;23.90;58.90
51815;DHT22;37874;53.158;6.766;2023-08-07T06:59:06;24.00;58.80
51815;DHT22;37874;53.158;6.766;2023-08-07T07:01:32;24.10;58.90
51815;DHT22;37874;53.158;6.766;2023-08-07T07:03:57;23.90;58.70
51815;DHT22;37874;53.158;6.766;2023-08-07T07:06:23;24.00;58.60
51815;DHT22;37874;53.158;6.766;2023-08-07T07:08:51;24.00;58.70
51815;DHT22;37874;53.158;6.766;2023-08-07T07:11:20;24.00;58.50
51815;DHT22;37874;53.158;6.766;2023-08-07T07:13:47;23.60;58.30
51815;DHT22;37874;53.158;6.766;2023-08-07T07:16:13;24.00;58.60
51815;DHT22;37874;53.158;6.766;2023-08-07T07:18:39;24.00;58.50
51815;DHT22;37874;53.158;6.766;2023-08-07T07:21:05;24.00;58.40
51815;DHT22;37874;53.158;6.766;2023-08-07T07:23:30;24.10;58.90
51815;DHT22;37874;53.158;6.766;2023-08-07T07:25:56;24.10;58.30
51815;DHT22;37874;53.158;6.766;2023-08-07T07:28:23;24.10;58.10
51815;DHT22;37874;53.158;6.766;2023-08-07T07:30:49;24.50;58.30
51815;DHT22;37874;53.158;6.766;2023-08-07T07:33:16;24.60;58.30
51815;DHT22;37874;53.158;6.766;2023-08-07T07:35:41;24.10;58.10
51815;DHT22;37874;53.158;6.766;2023-08-07T07:38:07;24.10;58.10
51815;DHT22;37874;53.158;6.766;2023-08-07T07:40:34;24.10;58.10
51815;DHT22;37874;53.158;6.766;2023-08-07T07:43:00;24.10;58.00
51815;DHT22;37874;53.158;6.766;2023-08-07T07:45:25;24.20;58.00
51815;DHT22;37874;53.158;6.766;2023-08-07T07:47:51;24.20;58.60
51815;DHT22;37874;53.158;6.766;2023-08-07T07:50:17;25.00;58.50
51815;DHT22;37874;53.158;6.766;2023-08-07T07:52:42;24.20;57.80
51815;DHT22;37874;53.158;6.766;2023-08-07T07:55:09;24.30;57.80
51815;DHT22;37874;53.158;6.766;2023-08-07T07:57:35;24.30;57.90
51815;DHT22;37874;53.158;6.766;2023-08-07T08:00:01;24.40;58.00
51815;DHT22;37874;53.158;6.766;2023-08-07T08:02:29;24.30;57.80
51815;DHT22;37874;53.158;6.766;2023-08-07T08:05:01;24.40;57.90
51815;DHT22;37874;53.158;6.766;2023-08-07T08:07:27;24.40;57.90
51815;DHT22;37874;53.158;6.766;2023-08-07T08:09:54;24.90;58.00
51815;DHT22;37874;53.158;6.766;2023-08-07T08:12:22;24.40;57.70
51815;DHT22;37874;53.158;6.766;2023-08-07T08:14:47;24.40;57.50
51815;DHT22;37874;53.158;6.766;2023-08-07T08:17:13;24.40;57.40
51815;DHT22;37874;53.158;6.766;2023-08-07T08:19:39;24.40;57.10
51815;DHT22;37874;53.158;6.766;2023-08-07T08:22:05;24.40;57.50
51815;DHT22;37874;53.158;6.766;2023-08-07T08:24:31;24.60;57.60
51815;DHT22;37874;53.158;6.766;2023-08-07T08:26:57;24.40;57.40
51815;DHT22;37874;53.158;6.766;2023-08-07T08:29:23;24.60;57.50
51815;DHT22;37874;53.158;6.766;2023-08-07T08:31:48;24.40;57.50
51815;DHT22;37874;53.158;6.766;2023-08-07T08:34:14;24.10;57.20
51815;DHT22;37874;53.158;6.766;2023-08-07T08:36:40;24.40;57.50
51815;DHT22;37874;53.158;6.766;2023-08-07T08:39:05;24.40;57.40
51815;DHT22;37874;53.158;6.766;2023-08-07T08:41:31;24.40;57.30
51815;DHT22;37874;53.158;6.766;2023-08-07T08:43:59;25.00;57.80
51815;DHT22;37874;53.158;6.766;2023-08-07T08:46:28;24.40;56.90
51815;DHT22;37874;53.158;6.766;2023-08-07T08:48:57;24.20;57.10
51815;DHT22;37874;53.158;6.766;2023-08-07T08:51:24;24.40;57.00
51815;DHT22;37874;53.158;6.766;2023-08-07T08:53:52;24.40;57.60
51815;DHT22;37874;53.158;6.766;2023-08-07T08:56:19;24.40;57.70
51815;DHT22;37874;53.158;6.766;2023-08-07T08:58:48;24.40;57.50
51815;DHT22;37874;53.158;6.766;2023-08-07T09:01:18;24.80;58.00
51815;DHT22;37874;53.158;6.766;2023-08-07T09:03:45;24.40;57.90
51815;DHT22;37874;53.158;6.766;2023-08-07T09:06:12;24.40;57.60
51815;DHT22;37874;53.158;6.766;2023-08-07T09:08:43;24.50;57.40
51815;DHT22;37874;53.158;6.766;2023-08-07T09:11:10;24.40;56.80
51815;DHT22;37874;53.158;6.766;2023-08-07T09:13:40;24.40;57.50
51815;DHT22;37874;53.158;6.766;2023-08-07T09:16:10;24.40;57.00
51815;DHT22;37874;53.158;6.766;2023-08-07T09:18:37;24.40;57.10
51815;DHT22;37874;53.158;6.766;2023-08-07T09:21:03;24.40;56.40
51815;DHT22;37874;53.158;6.766;2023-08-07T09:23:28;24.90;56.80
51815;DHT22;37874;53.158;6.766;2023-08-07T09:26:04;24.40;56.60
51815;DHT22;37874;53.158;6.766;2023-08-07T09:28:32;24.50;56.60
51815;DHT22;37874;53.158;6.766;2023-08-07T09:30:58;24.50;56.50
51815;DHT22;37874;53.158;6.766;2023-08-07T09:33:25;24.60;56.70
51815;DHT22;37874;53.158;6.766;2023-08-07T09:35:52;24.40;56.70
51815;DHT22;37874;53.158;6.766;2023-08-07T09:38:18;24.40;56.50
51815;DHT22;37874;53.158;6.766;2023-08-07T09:40:44;23.80;56.20
51815;DHT22;37874;53.158;6.766;2023-08-07T09:43:21;24.50;56.50
51815;DHT22;37874;53.158;6.766;2023-08-07T09:45:48;24.80;56.60
51815;DHT22;37874;53.158;6.766;2023-08-07T09:48:23;24.40;56.30
51815;DHT22;37874;53.158;6.766;2023-08-07T09:50:50;24.50;55.90
51815;DHT22;37874;53.158;6.766;2023-08-07T09:53:16;24.60;55.40
51815;DHT22;37874;53.158;6.766;2023-08-07T09:55:42;24.60;56.20
51815;DHT22;37874;53.158;6.766;2023-08-07T09:58:08;24.70;55.80
51815;DHT22;37874;53.158;6.766;2023-08-07T10:00:36;24.60;56.10
51815;DHT22;37874;53.158;6.766;2023-08-07T10:03:03;24.60;55.80
51815;DHT22;37874;53.158;6.766;2023-08-07T10:05:30;24.70;55.90
51815;DHT22;37874;53.158;6.766;2023-08-07T10:07:57;24.60;56.10
51815;DHT22;37874;53.158;6.766;2023-08-07T10:10:24;24.60;56.10
51815;DHT22;37874;53.158;6.766;2023-08-07T10:12:52;24.60;56.10
51815;DHT22;37874;53.158;6.766;2023-08-07T10:15:19;24.70;56.00
51815;DHT22;37874;53.158;6.766;2023-08-07T10:17:45;24.60;56.00
51815;DHT22;37874;53.158;6.766;2023-08-07T10:20:12;24.60;56.00
51815;DHT22;37874;53.158;6.766;2023-08-07T10:22:38;24.60;55.60
51815;DHT22;37874;53.158;6.766;2023-08-07T10:25:06;24.60;55.70
51815;DHT22;37874;53.158;6.766;2023-08-07T10:27:37;24.60;56.00
51815;DHT22;37874;53.158;6.766;2023-08-07T10:30:06;24.60;55.80
51815;DHT22;37874;53.158;6.766;2023-08-07T10:32:33;24.60;55.80
51815;DHT22;37874;53.158;6.766;2023-08-07T10:35:03;24.70;55.50
51815;DHT22;37874;53.158;6.766;2023-08-07T10:37:43;24.70;55.50
51815;DHT22;37874;53.158;6.766;2023-08-07T10:40:11;24.70;55.50
51815;DHT22;37874;53.158;6.766;2023-08-07T10:42:55;24.70;55.40
51815;DHT22;37874;53.158;6.766;2023-08-07T10:45:23;24.70;54.90
51815;DHT22;37874;53.158;6.766;2023-08-07T10:50:51;24.60;54.60
51815;DHT22;37874;53.158;6.766;2023-08-07T10:53:20;24.70;54.50
51815;DHT22;37874;53.158;6.766;2023-08-07T10:55:47;24.60;54.40
51815;DHT22;37874;53.158;6.766;2023-08-07T10:58:29;24.60;54.10
51815;DHT22;37874;53.158;6.766;2023-08-07T11:01:17;24.70;54.00
51815;DHT22;37874;53.158;6.766;2023-08-07T11:06:23;24.80;53.80
51815;DHT22;37874;53.158;6.766;2023-08-07T11:08:50;24.90;54.40
51815;DHT22;37874;53.158;6.766;2023-08-07T11:11:16;24.70;53.80
51815;DHT22;37874;53.158;6.766;2023-08-07T11:13:45;24.70;53.60
51815;DHT22;37874;53.158;6.766;2023-08-07T11:16:11;24.70;53.70
51815;DHT22;37874;53.158;6.766;2023-08-07T11:18:38;24.80;53.70
51815;DHT22;37874;53.158;6.766;2023-08-07T11:21:09;24.70;53.50
51815;DHT22;37874;53.158;6.766;2023-08-07T11:23:44;24.70;53.10
51815;DHT22;37874;53.158;6.766;2023-08-07T11:26:10;24.70;53.00
51815;DHT22;37874;53.158;6.766;2023-08-07T11:28:35;24.70;52.40
51815;DHT22;37874;53.158;6.766;2023-08-07T11:31:01;24.80;52.90
51815;DHT22;37874;53.158;6.766;2023-08-07T11:33:28;24.80;52.70
51815;DHT22;37874;53.158;6.766;2023-08-07T11:35:55;24.80;52.50
51815;DHT22;37874;53.158;6.766;2023-08-07T11:38:37;24.70;52.40
51815;DHT22;37874;53.158;6.766;2023-08-07T11:41:04;24.70;52.50
51815;DHT22;37874;53.158;6.766;2023-08-07T11:43:32;24.50;52.10
51815;DHT22;37874;53.158;6.766;2023-08-07T11:46:00;24.60;52.40
51815;DHT22;37874;53.158;6.766;2023-08-07T11:48:31;24.50;52.20
51815;DHT22;37874;53.158;6.766;2023-08-07T11:50:58;24.50;52.10
51815;DHT22;37874;53.158;6.766;2023-08-07T11:53:25;24.70;52.00
51815;DHT22;37874;53.158;6.766;2023-08-07T11:56:21;24.60;51.70
51815;DHT22;37874;53.158;6.766;2023-08-07T11:58:48;24.70;51.70
51815;DHT22;37874;53.158;6.766;2023-08-07T12:01:16;25.10;52.00
51815;DHT22;37874;53.158;6.766;2023-08-07T12:03:50;24.60;51.80
51815;DHT22;37874;53.158;6.766;2023-08-07T12:06:16;25.10;51.80
51815;DHT22;37874;53.158;6.766;2023-08-07T12:08:42;24.70;51.20
51815;DHT22;37874;53.158;6.766;2023-08-07T12:11:09;24.60;50.60
51815;DHT22;37874;53.158;6.766;2023-08-07T12:13:40;24.70;50.20
51815;DHT22;37874;53.158;6.766;2023-08-07T12:16:07;24.70;49.60
51815;DHT22;37874;53.158;6.766;2023-08-07T12:18:34;24.70;49.30
51815;DHT22;37874;53.158;6.766;2023-08-07T12:21:02;24.80;49.10
51815;DHT22;37874;53.158;6.766;2023-08-07T12:23:32;24.80;48.80
51815;DHT22;37874;53.158;6.766;2023-08-07T12:25:58;24.80;48.90
51815;DHT22;37874;53.158;6.766;2023-08-07T12:28:23;25.20;49.20
51815;DHT22;37874;53.158;6.766;2023-08-07T12:30:52;24.80;49.00
51815;DHT22;37874;53.158;6.766;2023-08-07T12:33:18;24.70;49.20
51815;DHT22;37874;53.158;6.766;2023-08-07T12:35:44;24.80;49.20
51815;DHT22;37874;53.158;6.766;2023-08-07T12:38:10;24.80;49.30
51815;DHT22;37874;53.158;6.766;2023-08-07T12:40:36;24.90;49.20
51815;DHT22;37874;53.158;6.766;2023-08-07T12:43:03;24.90;49.20
51815;DHT22;37874;53.158;6.766;2023-08-07T12:45:29;25.00;49.10
51815;DHT22;37874;53.158;6.766;2023-08-07T12:47:55;25.10;49.20
51815;DHT22;37874;53.158;6.766;2023-08-07T12:50:23;25.20;48.90
51815;DHT22;37874;53.158;6.766;2023-08-07T12:52:49;25.40;48.60
51815;DHT22;37874;53.158;6.766;2023-08-07T12:55:15;25.50;48.10
51815;DHT22;37874;53.158;6.766;2023-08-07T12:57:44;25.90;47.40
51815;DHT22;37874;53.158;6.766;2023-08-07T13:00:11;26.10;46.90
51815;DHT22;37874;53.158;6.766;2023-08-07T13:02:44;26.30;46.70
51815;DHT22;37874;53.158;6.766;2023-08-07T13:05:10;26.40;46.90
51815;DHT22;37874;53.158;6.766;2023-08-07T15:08:53;26.80;46.70
51815;DHT22;37874;53.158;6.766;2023-08-07T15:11:19;26.70;46.80
51815;DHT22;37874;53.158;6.766;2023-08-07T15:13:45;26.70;46.50
51815;DHT22;37874;53.158;6.766;2023-08-07T15:16:10;26.70;46.80
51815;DHT22;37874;53.158;6.766;2023-08-07T15:18:36;26.80;46.80
51815;DHT22;37874;53.158;6.766;2023-08-07T15:21:03;26.90;46.20
51815;DHT22;37874;53.158;6.766;2023-08-07T15:23:29;26.90;46.00
51815;DHT22;37874;53.158;6.766;2023-08-07T15:25:55;26.80;46.20
51815;DHT22;37874;53.158;6.766;2023-08-07T15:28:21;27.00;46.80
51815;DHT22;37874;53.158;6.766;2023-08-07T15:30:50;27.00;45.80
51815;DHT22;37874;53.158;6.766;2023-08-07T15:33:17;27.00;45.40
51815;DHT22;37874;53.158;6.766;2023-08-07T15:35:43;26.90;46.50
51815;DHT22;37874;53.158;6.766;2023-08-07T15:38:09;26.80;46.40
51815;DHT22;37874;53.158;6.766;2023-08-07T15:40:41;27.00;46.70
51815;DHT22;37874;53.158;6.766;2023-08-07T15:43:10;26.60;47.20
51815;DHT22;37874;53.158;6.766;2023-08-07T15:45:36;26.70;47.60
51815;DHT22;37874;53.158;6.766;2023-08-07T15:48:02;26.70;47.70
51815;DHT22;37874;53.158;6.766;2023-08-07T15:50:28;26.60;47.90
51815;DHT22;37874;53.158;6.766;2023-08-07T15:52:54;26.70;48.30
51815;DHT22;37874;53.158;6.766;2023-08-07T15:55:20;26.70;48.00
51815;DHT22;37874;53.158;6.766;2023-08-07T15:57:45;26.80;47.80
51815;DHT22;37874;53.158;6.766;2023-08-07T16:00:13;26.80;47.20
51815;DHT22;37874;53.158;6.766;2023-08-07T16:02:39;26.80;46.80
51815;DHT22;37874;53.158;6.766;2023-08-07T16:05:05;26.70;46.20
51815;DHT22;37874;53.158;6.766;2023-08-07T16:07:31;26.70;46.00
51815;DHT22;37874;53.158;6.766;2023-08-07T16:09:56;26.60;46.40
51815;DHT22;37874;53.158;6.766;2023-08-07T16:12:22;26.50;46.40
51815;DHT22;37874;53.158;6.766;2023-08-07T16:14:48;26.50;46.70
51815;DHT22;37874;53.158;6.766;2023-08-07T16:17:14;26.40;46.80
51815;DHT22;37874;53.158;6.766;2023-08-07T16:19:40;26.40;46.80
51815;DHT22;37874;53.158;6.766;2023-08-07T18:23:26;25.60;46.50
51815;DHT22;37874;53.158;6.766;2023-08-07T18:25:52;25.40;46.70
51815;DHT22;37874;53.158;6.766;2023-08-07T18:28:18;25.50;47.00
51815;DHT22;37874;53.158;6.766;2023-08-07T18:30:44;25.40;47.00
51815;DHT22;37874;53.158;6.766;2023-08-07T18:33:09;25.30;46.90
51815;DHT22;37874;53.158;6.766;2023-08-07T18:35:35;25.30;47.00
51815;DHT22;37874;53.158;6.766;2023-08-07T18:38:00;25.30;47.20
51815;DHT22;37874;53.158;6.766;2023-08-07T18:40:26;25.20;47.30
51815;DHT22;37874;53.158;6.766;2023-08-07T18:42:51;25.20;47.50
51815;DHT22;37874;53.158;6.766;2023-08-07T18:45:17;25.50;47.90
51815;DHT22;37874;53.158;6.766;2023-08-07T18:47:43;25.20;47.80
51815;DHT22;37874;53.158;6.766;2023-08-07T18:50:09;25.20;47.90
51815;DHT22;37874;53.158;6.766;2023-08-07T18:52:34;25.20;48.10
51815;DHT22;37874;53.158;6.766;2023-08-07T18:55:00;25.20;48.10
51815;DHT22;37874;53.158;6.766;2023-08-07T18:57:26;25.10;48.00
51815;DHT22;37874;53.158;6.766;2023-08-07T18:59:51;25.20;48.30
51815;DHT22;37874;53.158;6.766;2023-08-07T19:02:17;25.10;48.40
51815;DHT22;37874;53.158;6.766;2023-08-07T19:04:43;25.00;48.30
51815;DHT22;37874;53.158;6.766;2023-08-07T19:07:09;25.10;48.60
51815;DHT22;37874;53.158;6.766;2023-08-07T19:09:35;25.00;48.50
51815;DHT22;37874;53.158;6.766;2023-08-07T19:12:01;25.00;48.60
51815;DHT22;37874;53.158;6.766;2023-08-07T19:14:27;24.90;49.00
51815;DHT22;37874;53.158;6.766;2023-08-07T19:16:53;24.90;48.90
51815;DHT22;37874;53.158;6.766;2023-08-07T19:19:20;24.90;49.10
51815;DHT22;37874;53.158;6.766;2023-08-07T19:21:45;24.90;49.30
51815;DHT22;37874;53.158;6.766;2023-08-07T19:24:11;24.80;49.50
51815;DHT22;37874;53.158;6.766;2023-08-07T19:26:37;24.80;49.60
51815;DHT22;37874;53.158;6.766;2023-08-07T19:29:05;24.80;49.70
51815;DHT22;37874;53.158;6.766;2023-08-07T19:31:31;24.80;49.80
51815;DHT22;37874;53.158;6.766;2023-08-07T19:33:57;24.40;49.70
51815;DHT22;37874;53.158;6.766;2023-08-07T19:36:22;24.80;50.00
51815;DHT22;37874;53.158;6.766;2023-08-07T19:38:48;24.70;50.00
51815;DHT22;37874;53.158;6.766;2023-08-07T19:41:13;24.80;50.10
51815;DHT22;37874;53.158;6.766;2023-08-07T19:43:39;24.70;50.10
51815;DHT22;37874;53.158;6.766;2023-08-07T19:46:07;24.70;50.20
51815;DHT22;37874;53.158;6.766;2023-08-07T19:48:33;24.80;50.30